Time;durP1;ratioP1;P1;durP2;ratioP2;P2;SDS_P1;SDS_P2;PMS_P1;PMS_P2;Temp;Humidity;BMP_temperature;BMP_pressure;BME280_temperature;BME280_humidity;BME280_pressure;Samples;Min_cycle;Max_cycle;Signal;HPM_P1;HPM_P2
2024/04/04 00:02:21;;;;;;;;;;;;;;;10.68;88.25;98121.31;4985654;28;19925;-94
2024/04/04 00:04:59;;;;;;;;;;;;;;;10.65;89.28;98123.00;4980199;28;19922;-96
2024/04/04 00:07:24;;;;;;;;;;;;;;;10.59;90.58;98146.88;4982364;28;19941;-95
2024/04/04 00:09:51;;;;;;;;;;;;;;;10.55;92.41;98148.59;4988373;28;19921;-96
2024/04/04 00:12:19;;;;;;;;;;;;;;;10.38;94.55;98156.25;5001141;28;19922;-94
2024/04/04 00:14:44;;;;;;;;;;;;;;;10.35;95.80;98147.28;4977452;28;19918;-93
2024/04/04 00:17:10;;;;;;;;;;;;;;;10.38;95.70;98164.25;4983953;28;19918;-93
2024/04/04 00:19:35;;;;;;;;;;;;;;;10.21;96.36;98161.22;4997124;28;19918;-93
2024/04/04 00:22:00;;;;;;;;;;;;;;;10.19;96.93;98160.25;5004143;28;19925;-94
2024/04/04 00:24:26;;;;;;;;;;;;;;;10.14;97.84;98158.38;4982541;28;19925;-92
2024/04/04 00:26:51;;;;;;;;;;;;;;;10.15;97.80;98165.50;5004610;28;19925;-92
2024/04/04 00:29:17;;;;;;;;;;;;;;;10.11;98.22;98153.88;5004598;28;19918;-93
2024/04/04 00:31:44;;;;;;;;;;;;;;;10.08;99.08;98158.25;4997547;28;19922;-91
2024/04/04 00:34:10;;;;;;;;;;;;;;;10.02;99.55;98153.69;4991833;28;19918;-93
2024/04/04 00:36:36;;;;;;;;;;;;;;;9.95;99.89;98151.72;4995141;28;19968;-91
2024/04/04 00:39:04;;;;;;;;;;;;;;;9.93;100.00;98159.72;4994891;28;19922;-92
2024/04/04 00:41:29;;;;;;;;;;;;;;;9.89;100.00;98154.28;4979126;28;19925;-92
2024/04/04 00:43:56;;;;;;;;;;;;;;;9.89;100.00;98157.84;4998888;28;19918;-90
2024/04/04 00:46:22;;;;;;;;;;;;;;;9.89;100.00;98159.59;5003367;28;19925;-91
2024/04/04 00:48:48;;;;;;;;;;;;;;;9.91;100.00;98164.09;5001320;28;19960;-91
2024/04/04 00:51:13;;;;;;;;;;;;;;;9.96;100.00;98170.41;5000658;28;19918;-91
2024/04/04 00:53:39;;;;;;;;;;;;;;;9.96;100.00;98165.09;4989823;28;19921;-90
2024/04/04 00:56:05;;;;;;;;;;;;;;;9.88;100.00;98160.47;5015484;28;19922;-92
2024/04/04 00:58:31;;;;;;;;;;;;;;;9.87;100.00;98159.56;5005122;28;19972;-93
2024/04/04 01:00:56;;;;;;;;;;;;;;;9.83;100.00;98163.03;5012638;28;19929;-93
2024/04/04 01:03:22;;;;;;;;;;;;;;;9.85;100.00;98171.03;5014637;28;19925;-93
2024/04/04 01:05:47;;;;;;;;;;;;;;;9.79;100.00;98166.47;4997716;28;19922;-92
2024/04/04 01:08:14;;;;;;;;;;;;;;;9.76;100.00;98166.41;4997650;28;19925;-91
2024/04/04 01:10:39;;;;;;;;;;;;;;;9.77;100.00;98176.19;4986769;28;19970;-91
2024/04/04 01:13:06;;;;;;;;;;;;;;;9.76;100.00;98172.63;4992932;28;20012;-92
2024/04/04 01:15:31;;;;;;;;;;;;;;;9.74;100.00;98174.38;5004782;28;19957;-92
2024/04/04 01:18:01;;;;;;;;;;;;;;;9.77;100.00;98178.84;4981825;28;19913;-93
2024/04/04 01:20:32;;;;;;;;;;;;;;;9.71;100.00;98171.63;4989667;28;20012;-94
2024/04/04 01:22:57;;;;;;;;;;;;;;;9.68;100.00;98173.34;4999288;28;19922;-93
2024/04/04 01:25:22;;;;;;;;;;;;;;;9.64;100.00;98174.13;4980349;28;19918;-94
2024/04/04 01:27:51;;;;;;;;;;;;;;;9.58;100.00;98164.22;4987101;28;19929;-93
2024/04/04 01:30:17;;;;;;;;;;;;;;;9.64;100.00;98167.03;4975529;28;20492;-92
2024/04/04 01:32:42;;;;;;;;;;;;;;;9.59;100.00;98160.69;4996585;28;19925;-93
2024/04/04 01:35:08;;;;;;;;;;;;;;;9.50;100.00;98160.47;4983322;28;19918;-93
2024/04/04 01:37:33;;;;;;;;;;;;;;;9.50;100.00;98173.78;4995619;28;19922;-92
2024/04/04 01:39:59;;;;;;;;;;;;;;;9.51;100.00;98179.13;4996983;28;20013;-91
2024/04/04 01:42:26;;;;;;;;;;;;;;;9.50;100.00;98174.69;5012816;28;19949;-93
2024/04/04 01:44:52;;;;;;;;;;;;;;;9.48;100.00;98181.72;4999391;28;19925;-93
2024/04/04 01:47:18;;;;;;;;;;;;;;;9.46;100.00;98179.91;4995207;28;19917;-93
2024/04/04 01:49:44;;;;;;;;;;;;;;;9.45;100.00;98184.31;4997896;28;20652;-92
2024/04/04 01:52:09;;;;;;;;;;;;;;;9.39;100.00;98181.53;4982213;28;20020;-93
2024/04/04 01:54:35;;;;;;;;;;;;;;;9.35;100.00;98186.72;4992892;28;19941;-93
2024/04/04 01:57:00;;;;;;;;;;;;;;;9.29;100.00;98176.81;5002811;28;19921;-93
2024/04/04 01:59:25;;;;;;;;;;;;;;;9.33;100.00;98180.44;4978803;28;19925;-93
2024/04/04 02:01:51;;;;;;;;;;;;;;;9.31;100.00;98172.44;4976634;28;19918;-93
2024/04/04 02:04:16;;;;;;;;;;;;;;;9.29;100.00;98176.81;4980660;28;20355;-92
2024/04/04 02:06:41;;;;;;;;;;;;;;;9.31;100.00;98171.53;4990263;28;19918;-92
2024/04/04 02:09:07;;;;;;;;;;;;;;;9.38;100.00;98173.47;4994632;28;20385;-91
2024/04/04 02:11:33;;;;;;;;;;;;;;;9.36;100.00;98165.47;4998653;28;19917;-93
2024/04/04 02:13:59;;;;;;;;;;;;;;;9.36;100.00;98160.13;4996312;28;19960;-90
2024/04/04 02:16:25;;;;;;;;;;;;;;;9.39;100.00;98172.59;4978940;28;19922;-93
2024/04/04 02:18:51;;;;;;;;;;;;;;;9.37;100.00;98177.91;4972935;28;19918;-92
2024/04/04 02:21:17;;;;;;;;;;;;;;;9.38;100.00;98174.38;4983582;28;20375;-90
2024/04/04 02:23:43;;;;;;;;;;;;;;;9.37;100.00;98166.34;4983045;28;19917;-92
2024/04/04 02:26:08;;;;;;;;;;;;;;;9.35;100.00;98158.34;4973123;28;19945;-92
2024/04/04 02:28:34;;;;;;;;;;;;;;;9.39;100.00;98161.94;4999568;28;19918;-91
2024/04/04 02:31:00;;;;;;;;;;;;;;;9.43;100.00;98155.84;4999379;28;19925;-92
2024/04/04 02:33:25;;;;;;;;;;;;;;;9.49;100.00;98162.25;5000799;28;19922;-91
2024/04/04 02:35:53;;;;;;;;;;;;;;;9.49;100.00;98164.91;4990163;28;19925;-93
2024/04/04 02:38:18;;;;;;;;;;;;;;;9.48;100.00;98159.53;4998105;28;20004;-92
2024/04/04 02:40:45;;;;;;;;;;;;;;;9.48;100.00;98164.84;4992366;28;20639;-92
2024/04/04 02:43:10;;;;;;;;;;;;;;;9.46;100.00;98156.81;5000976;28;20012;-92
2024/04/04 02:45:36;;;;;;;;;;;;;;;9.43;100.00;98161.16;4980239;28;20318;-93
2024/04/04 02:48:02;;;;;;;;;;;;;;;9.51;100.00;98157.84;4976124;28;20371;-94
2024/04/04 02:50:28;;;;;;;;;;;;;;;9.52;100.00;98158.72;4997893;28;19926;-94
2024/04/04 02:52:53;;;;;;;;;;;;;;;9.48;100.00;98144.44;4982550;28;19981;-93
2024/04/04 02:55:18;;;;;;;;;;;;;;;9.47;100.00;98142.66;5000487;28;20273;-93
2024/04/04 02:57:44;;;;;;;;;;;;;;;9.55;100.00;98147.28;4998252;28;19944;-94
2024/04/04 03:00:12;;;;;;;;;;;;;;;9.55;100.00;98149.94;4995644;28;19925;-95
2024/04/04 03:02:38;;;;;;;;;;;;;;;9.64;100.00;98144.81;4997925;28;19981;-94
2024/04/04 03:05:04;;;;;;;;;;;;;;;9.68;100.00;98141.38;4985303;28;19972;-95
2024/04/04 03:07:32;;;;;;;;;;;;;;;9.65;100.00;98146.63;5001721;28;19928;-93
2024/04/04 03:09:59;;;;;;;;;;;;;;;9.61;100.00;98150.97;4996056;28;19918;-94
2024/04/04 03:12:25;;;;;;;;;;;;;;;9.63;100.00;98148.31;4999671;28;19930;-93
2024/04/04 03:14:52;;;;;;;;;;;;;;;9.57;100.00;98150.84;4980381;28;19924;-93
2024/04/04 03:17:18;;;;;;;;;;;;;;;9.55;100.00;98149.94;4976876;28;19925;-95
2024/04/04 03:19:43;;;;;;;;;;;;;;;9.49;100.00;98140.03;4992855;28;19922;-93
2024/04/04 03:22:10;;;;;;;;;;;;;;;9.46;100.00;98132.88;4994919;28;19929;-93
2024/04/04 03:24:36;;;;;;;;;;;;;;;9.46;100.00;98134.63;4981756;28;19922;-92
2024/04/04 03:27:02;;;;;;;;;;;;;;;9.50;100.00;98137.41;4963771;28;19929;-93
2024/04/04 03:29:28;;;;;;;;;;;;;;;9.47;100.00;98132.00;4993642;28;19918;-94
2024/04/04 03:31:54;;;;;;;;;;;;;;;9.49;100.00;98130.28;4993830;28;19922;-94
2024/04/04 03:34:19;;;;;;;;;;;;;;;9.51;100.00;98127.66;4978333;28;19918;-94
2024/04/04 03:36:47;;;;;;;;;;;;;;;9.62;99.64;98130.56;4975708;28;20538;-93
2024/04/04 03:39:12;;;;;;;;;;;;;;;9.92;97.38;98127.72;4996708;28;20391;-93
2024/04/04 03:41:38;;;;;;;;;;;;;;;9.94;95.53;98133.94;4964726;28;19929;-93
2024/04/04 03:44:05;;;;;;;;;;;;;;;9.83;96.14;98123.06;4993855;28;20006;-93
2024/04/04 03:46:32;;;;;;;;;;;;;;;9.82;96.64;98131.00;4994047;28;19917;-92
2024/04/04 03:48:58;;;;;;;;;;;;;;;9.89;94.94;98131.19;4997408;28;19918;-93
2024/04/04 03:51:26;;;;;;;;;;;;;;;9.84;95.36;98122.19;4978992;28;19922;-92
2024/04/04 03:53:53;;;;;;;;;;;;;;;9.79;96.54;98133.63;4989458;28;19964;-92
2024/04/04 03:56:19;;;;;;;;;;;;;;;9.70;97.13;98128.97;4996173;28;19932;-94
2024/04/04 03:58:44;;;;;;;;;;;;;;;9.73;96.80;98129.06;5000279;28;19918;-92
2024/04/04 04:01:10;;;;;;;;;;;;;;;9.87;96.10;98130.28;4999613;28;20029;-93
2024/04/04 04:03:35;;;;;;;;;;;;;;;10.11;92.84;98126.31;4998844;28;19930;-92
2024/04/04 04:06:01;;;;;;;;;;;;;;;10.26;92.10;98137.34;4978212;28;20020;-92
2024/04/04 04:08:26;;;;;;;;;;;;;;;10.17;92.57;98137.13;4994578;28;20371;-92
2024/04/04 04:10:52;;;;;;;;;;;;;;;10.17;93.76;98147.78;4998088;28;20374;-90
2024/04/04 04:13:31;;;;;;;;;;;;;;;10.49;89.02;98143.13;4986850;28;19918;-90
2024/04/04 04:16:02;;;;;;;;;;;;;;;10.50;89.08;98147.63;4991089;28;20449;-91
2024/04/04 04:18:31;;;;;;;;;;;;;;;10.62;88.53;98153.19;4991798;28;19921;-91
2024/04/04 04:21:18;;;;;;;;;;;;;;;10.79;86.97;98145.50;4997089;28;20143;-90
2024/04/04 04:23:45;;;;;;;;;;;;;;;10.66;87.29;98152.38;5011563;28;19964;-91
2024/04/04 04:26:11;;;;;;;;;;;;;;;10.66;87.34;98149.69;4987955;28;19977;-90
2024/04/04 04:28:36;;;;;;;;;;;;;;;10.63;87.51;98149.63;5000610;28;19953;-92
2024/04/04 04:31:03;;;;;;;;;;;;;;;10.77;86.18;98148.13;4996300;28;19922;-92
2024/04/04 04:33:29;;;;;;;;;;;;;;;10.67;86.92;98140.81;5010291;28;20006;-91
2024/04/04 04:35:54;;;;;;;;;;;;;;;10.67;86.59;98146.16;4995435;28;20052;-89
2024/04/04 04:38:19;;;;;;;;;;;;;;;10.64;86.86;98154.13;4994460;28;20264;-91
2024/04/04 04:40:45;;;;;;;;;;;;;;;10.68;86.67;98152.38;4979325;28;20276;-91
2024/04/04 04:43:11;;;;;;;;;;;;;;;10.81;86.14;98142.84;4991490;28;20003;-90
2024/04/04 04:45:36;;;;;;;;;;;;;;;10.94;83.90;98145.78;4991956;28;20477;-91
2024/04/04 04:48:02;;;;;;;;;;;;;;;10.90;84.63;98143.94;4994340;28;19929;-91
2024/04/04 04:50:27;;;;;;;;;;;;;;;10.90;84.24;98143.03;4985812;28;19942;-91
2024/04/04 04:52:52;;;;;;;;;;;;;;;10.73;85.04;98148.97;4994575;28;19918;-91
2024/04/04 04:55:18;;;;;;;;;;;;;;;10.69;86.01;98149.78;4991199;28;19918;-91
2024/04/04 04:57:43;;;;;;;;;;;;;;;10.42;86.87;98143.88;4978057;28;19953;-91
2024/04/04 05:00:09;;;;;;;;;;;;;;;10.63;84.79;98146.97;4977644;28;19940;-91
2024/04/04 05:02:35;;;;;;;;;;;;;;;10.55;85.28;98151.28;4988128;28;20457;-92
2024/04/04 05:05:11;;;;;;;;;;;;;;;10.44;86.18;98153.72;4995380;28;20502;-91
2024/04/04 05:07:36;;;;;;;;;;;;;;;10.67;84.94;98147.94;5002461;28;19925;-92
2024/04/04 05:10:03;;;;;;;;;;;;;;;10.64;84.98;98137.22;4995485;28;20316;-91
2024/04/04 05:12:28;;;;;;;;;;;;;;;10.72;84.87;98132.91;4993639;28;20368;-92
2024/04/04 05:14:54;;;;;;;;;;;;;;;10.65;85.41;98136.34;4995524;28;19953;-92
2024/04/04 05:17:19;;;;;;;;;;;;;;;10.75;84.49;98135.66;4993837;28;19933;-91
2024/04/04 05:19:44;;;;;;;;;;;;;;;10.59;85.70;98137.13;4993986;28;20004;-92
2024/04/04 05:22:09;;;;;;;;;;;;;;;10.60;85.84;98135.34;4998094;28;19928;-91
2024/04/04 05:24:35;;;;;;;;;;;;;;;10.73;84.67;98132.03;5004860;28;19921;-90
2024/04/04 05:27:00;;;;;;;;;;;;;;;10.73;84.74;98134.69;5006343;28;20618;-92
2024/04/04 05:29:25;;;;;;;;;;;;;;;10.81;84.27;98135.75;4996483;28;19930;-92
2024/04/04 05:31:51;;;;;;;;;;;;;;;10.73;85.06;98140.03;5011728;28;19968;-92
2024/04/04 05:34:17;;;;;;;;;;;;;;;10.89;83.93;98139.47;5015662;28;19926;-93
2024/04/04 05:36:42;;;;;;;;;;;;;;;10.94;83.08;98136.88;5010872;28;20379;-92
2024/04/04 05:39:08;;;;;;;;;;;;;;;11.04;82.80;98141.50;5013129;28;19937;-92
2024/04/04 05:41:33;;;;;;;;;;;;;;;11.20;81.73;98129.31;5012214;28;20024;-92
2024/04/04 05:44:02;;;;;;;;;;;;;;;11.23;81.77;98127.59;5014420;28;19917;-92
2024/04/04 05:46:47;;;;;;;;;;;;;;;11.19;81.83;98125.75;5015311;28;19921;-91
2024/04/04 05:49:13;;;;;;;;;;;;;;;11.19;81.38;98128.41;5031950;28;19913;-92
2024/04/04 05:51:38;;;;;;;;;;;;;;;11.20;81.96;98116.88;5016536;28;19909;-92
2024/04/04 05:54:03;;;;;;;;;;;;;;;11.40;80.38;98122.56;4999405;28;19914;-92
2024/04/04 05:56:30;;;;;;;;;;;;;;;11.47;80.21;98127.09;5019097;28;19937;-92
2024/04/04 05:58:56;;;;;;;;;;;;;;;11.68;78.79;98130.97;5001617;28;19933;-93
2024/04/04 06:01:22;;;;;;;;;;;;;;;11.72;78.23;98128.38;5001192;28;19922;-92
2024/04/04 06:03:48;;;;;;;;;;;;;;;11.72;79.67;98132.81;4996919;28;19914;-93
2024/04/04 06:06:13;;;;;;;;;;;;;;;11.64;78.65;98123.78;5015394;28;20045;-93
2024/04/04 06:08:39;;;;;;;;;;;;;;;11.62;80.04;98125.53;5014151;28;19940;-93
2024/04/04 06:11:04;;;;;;;;;;;;;;;11.63;79.32;98122.88;5019038;28;19958;-93
2024/04/04 06:13:42;;;;;;;;;;;;;;;11.71;78.99;98115.00;5015299;28;19979;-93
2024/04/04 06:16:10;;;;;;;;;;;;;;;11.76;77.69;98123.97;5002490;28;19930;-93
2024/04/04 06:18:38;;;;;;;;;;;;;;;11.94;76.34;98121.59;4998189;28;19919;-92
2024/04/04 06:21:04;;;;;;;;;;;;;;;11.92;77.28;98125.13;5001322;28;19924;-93
2024/04/04 06:23:29;;;;;;;;;;;;;;;11.90;78.34;98132.22;5004679;28;19961;-93
2024/04/04 06:25:57;;;;;;;;;;;;;;;11.93;77.22;98129.59;4984162;28;19929;-93
2024/04/04 06:28:23;;;;;;;;;;;;;;;12.01;76.12;98126.16;4999950;28;19926;-92
2024/04/04 06:30:51;;;;;;;;;;;;;;;12.06;75.84;98112.84;5001821;28;19925;-91
2024/04/04 06:33:16;;;;;;;;;;;;;;;12.15;74.45;98112.97;4983037;28;19933;-93
2024/04/04 06:35:42;;;;;;;;;;;;;;;12.22;75.57;98113.97;4985714;28;19926;-94
2024/04/04 06:38:15;;;;;;;;;;;;;;;12.31;74.65;98120.31;4986845;28;19922;-94
2024/04/04 06:40:42;;;;;;;;;;;;;;;12.36;74.42;98111.44;4996103;28;20390;-94
2024/04/04 06:43:12;;;;;;;;;;;;;;;12.33;73.69;98110.53;4982879;28;19921;-94
2024/04/04 06:45:37;;;;;;;;;;;;;;;12.49;73.79;98114.28;4996294;28;19918;-95
2024/04/04 06:48:02;;;;;;;;;;;;;;;12.88;72.26;98112.00;4986710;28;19921;-95
2024/04/04 06:50:28;;;;;;;;;;;;;;;12.76;72.52;98115.47;4983986;28;19926;-94
2024/04/04 06:52:53;;;;;;;;;;;;;;;12.79;71.78;98112.81;4998972;28;19969;-94
2024/04/04 06:55:19;;;;;;;;;;;;;;;12.72;71.63;98102.94;4978187;28;20024;-95
2024/04/04 06:57:44;;;;;;;;;;;;;;;13.22;70.62;98097.19;4992896;28;19928;-95
2024/04/04 07:00:11;;;;;;;;;;;;;;;13.76;68.45;98091.34;4979178;28;19949;-95
2024/04/04 07:02:40;;;;;;;;;;;;;;;14.34;66.52;98094.31;4990309;28;19929;-94
2024/04/04 07:05:07;;;;;;;;;;;;;;;14.27;67.15;98096.97;4973533;28;20012;-95
2024/04/04 07:07:33;;;;;;;;;;;;;;;14.10;66.55;98097.78;4981167;28;19977;-93
2024/04/04 07:09:58;;;;;;;;;;;;;;;14.31;66.60;98096.97;4975827;28;19957;-94
2024/04/04 07:12:24;;;;;;;;;;;;;;;14.70;65.10;98095.34;4989977;28;19961;-94
2024/04/04 07:14:51;;;;;;;;;;;;;;;14.39;65.94;98102.38;5002662;28;19922;-94
2024/04/04 07:17:19;;;;;;;;;;;;;;;14.23;66.39;98103.19;4980258;28;19930;-93
2024/04/04 07:19:45;;;;;;;;;;;;;;;14.31;66.03;98112.19;4996435;28;19940;-94
2024/04/04 07:22:16;;;;;;;;;;;;;;;14.48;65.01;98102.47;4981362;28;20325;-94
2024/04/04 07:24:44;;;;;;;;;;;;;;;14.59;63.94;98103.38;5005849;28;20012;-94
2024/04/04 07:27:09;;;;;;;;;;;;;;;14.89;63.18;98093.59;4989144;28;19929;-94
2024/04/04 07:29:36;;;;;;;;;;;;;;;15.48;60.77;98084.69;5015728;28;19928;-93
2024/04/04 07:32:08;;;;;;;;;;;;;;;15.48;62.03;98090.06;5006692;28;19932;-96
2024/04/04 07:34:36;;;;;;;;;;;;;;;15.55;60.17;98099.91;5004271;28;19961;-93
2024/04/04 07:37:02;;;;;;;;;;;;;;;15.41;62.35;98099.03;4993108;28;19973;-93
2024/04/04 07:39:30;;;;;;;;;;;;;;;14.94;62.58;98099.88;4999552;28;20347;-93
2024/04/04 07:41:56;;;;;;;;;;;;;;;14.89;62.68;98093.59;5230404;23;19932;-94
2024/04/04 07:44:22;;;;;;;;;;;;;;;14.77;62.92;98107.91;5020401;28;19918;-94
2024/04/04 07:46:50;;;;;;;;;;;;;;;14.79;63.65;98115.97;4998098;28;19990;-95
2024/04/04 07:49:17;;;;;;;;;;;;;;;14.78;63.83;98117.75;5015280;28;19929;-93
2024/04/04 07:51:42;;;;;;;;;;;;;;;14.86;63.43;98129.44;5009933;28;19929;-92
2024/04/04 07:54:08;;;;;;;;;;;;;;;14.74;62.89;98118.63;4995591;28;19921;-92
2024/04/04 07:56:33;;;;;;;;;;;;;;;14.67;62.73;98138.31;4995049;28;19918;-91
2024/04/04 07:58:59;;;;;;;;;;;;;;;14.65;62.46;98120.41;5007777;28;19922;-94
2024/04/04 08:01:24;;;;;;;;;;;;;;;14.74;62.28;98124.00;4995352;28;19945;-93
2024/04/04 08:03:49;;;;;;;;;;;;;;;14.74;62.48;98129.38;4989594;28;19918;-93
2024/04/04 08:06:15;;;;;;;;;;;;;;;14.59;63.29;98126.66;4991785;28;19925;-92
2024/04/04 08:08:41;;;;;;;;;;;;;;;14.35;64.22;98135.47;4996194;28;20438;-93
2024/04/04 08:11:07;;;;;;;;;;;;;;;14.12;65.54;98133.56;5009163;28;19929;-92
2024/04/04 08:13:33;;;;;;;;;;;;;;;14.07;65.59;98129.94;4997742;28;19957;-92
2024/04/04 08:15:58;;;;;;;;;;;;;;;14.18;65.41;98129.09;5005606;28;20243;-94
2024/04/04 08:18:26;;;;;;;;;;;;;;;14.22;65.64;98133.59;5008394;28;19933;-94
2024/04/04 08:20:52;;;;;;;;;;;;;;;14.09;64.69;98144.28;4992644;28;19922;-93
2024/04/04 08:23:18;;;;;;;;;;;;;;;14.30;64.57;98138.13;4992245;28;19917;-93
2024/04/04 08:25:53;;;;;;;;;;;;;;;14.52;64.09;98143.63;5002959;28;19926;-92
2024/04/04 08:28:20;;;;;;;;;;;;;;;14.44;64.20;98127.47;4997624;28;19922;-93
2024/04/04 08:30:45;;;;;;;;;;;;;;;14.46;63.75;98128.34;4995683;28;19969;-91
2024/04/04 08:33:13;;;;;;;;;;;;;;;14.60;63.06;98134.69;5005075;28;19945;-92
2024/04/04 08:35:39;;;;;;;;;;;;;;;14.69;63.18;98141.00;4992906;28;19922;-92
2024/04/04 08:38:04;;;;;;;;;;;;;;;14.62;63.16;98142.78;4982743;28;19921;-92
2024/04/04 08:40:31;;;;;;;;;;;;;;;14.46;63.15;98146.25;4998165;28;20278;-91
2024/04/04 08:42:57;;;;;;;;;;;;;;;14.49;63.21;98154.34;5000791;28;19921;-92
2024/04/04 08:45:28;;;;;;;;;;;;;;;14.44;63.49;98146.25;5006486;28;19921;-92
2024/04/04 08:47:54;;;;;;;;;;;;;;;14.78;62.02;98149.09;5017437;28;19922;-93
2024/04/04 08:50:20;;;;;;;;;;;;;;;14.66;62.60;98146.34;5003976;28;20286;-92
2024/04/04 08:52:45;;;;;;;;;;;;;;;14.52;63.07;98163.31;5018665;28;19922;-93
2024/04/04 08:55:12;;;;;;;;;;;;;;;14.34;63.68;98158.72;5003145;28;19922;-92
2024/04/04 08:57:41;;;;;;;;;;;;;;;14.36;63.67;98170.34;5021407;28;19928;-91
2024/04/04 09:00:11;;;;;;;;;;;;;;;14.32;64.25;98181.06;5023659;28;19928;-93
2024/04/04 09:02:39;;;;;;;;;;;;;;;13.85;66.35;98173.63;4993980;28;20015;-93
2024/04/04 09:05:06;;;;;;;;;;;;;;;13.38;69.70;98182.19;5010361;28;19918;-92
2024/04/04 09:07:35;;;;;;;;;;;;;;;13.04;71.23;98184.50;5023883;28;19976;-93
2024/04/04 09:10:02;;;;;;;;;;;;;;;13.02;70.96;98183.56;5027489;28;19926;-93
2024/04/04 09:12:28;;;;;;;;;;;;;;;13.03;70.87;98176.41;5022080;28;19917;-93
2024/04/04 09:14:58;;;;;;;;;;;;;;;13.13;70.18;98180.09;5003811;28;19944;-95
2024/04/04 09:17:24;;;;;;;;;;;;;;;13.43;69.65;98167.03;5002797;28;19980;-95
2024/04/04 09:19:56;;;;;;;;;;;;;;;13.69;68.08;98161.88;5003104;28;19959;-93
2024/04/04 09:22:27;;;;;;;;;;;;;;;13.97;66.93;98165.66;5017527;28;19929;-93
2024/04/04 09:25:00;;;;;;;;;;;;;;;14.09;66.29;98156.81;5000419;28;19957;-95
2024/04/04 09:27:28;;;;;;;;;;;;;;;14.00;66.66;98159.44;5001967;28;20056;-95
2024/04/04 09:29:53;;;;;;;;;;;;;;;14.06;67.41;98164.81;4991538;28;20337;-94
2024/04/04 09:32:19;;;;;;;;;;;;;;;14.09;65.36;98163.06;5013614;28;20311;-95
2024/04/04 09:34:49;;;;;;;;;;;;;;;14.12;65.94;98165.75;5027028;28;19905;-94
2024/04/04 09:37:19;;;;;;;;;;;;;;;14.32;65.02;98167.63;5018173;28;20378;-96
2024/04/04 09:39:44;;;;;;;;;;;;;;;14.33;65.04;98177.50;4994850;28;19983;-95
2024/04/04 09:42:13;;;;;;;;;;;;;;;14.30;65.27;98170.31;5022191;28;19925;-95
2024/04/04 09:44:38;;;;;;;;;;;;;;;14.05;66.30;98180.03;5005662;28;19925;-94
2024/04/04 09:47:05;;;;;;;;;;;;;;;13.90;66.97;98182.59;4992799;28;20118;-93
2024/04/04 09:50:05;;;;;;;;;;;;;;;13.68;68.44;98189.56;5010868;28;19906;-96
2024/04/04 09:55:14;;;;;;;;;;;;;;;13.26;71.24;98201.69;5353708;23;19932;-93
2024/04/04 09:57:40;;;;;;;;;;;;;;;13.33;71.04;98200.91;5053209;28;19936;-96
2024/04/04 10:00:28;;;;;;;;;;;;;;;13.31;71.62;98199.06;5569194;23;19917;-95
2024/04/04 10:02:57;;;;;;;;;;;;;;;13.25;71.52;98199.00;5044777;28;20063;-95
2024/04/04 10:05:33;;;;;;;;;;;;;;;13.18;72.03;98192.69;5063784;28;20402;-95
2024/04/04 10:08:26;;;;;;;;;;;;;;;13.16;71.90;98205.13;5062840;28;19950;-95
2024/04/04 10:11:04;;;;;;;;;;;;;;;13.09;73.36;98208.66;5052433;28;19917;-96
2024/04/04 10:58:16;;;;;;;;;;;;;;;12.75;75.90;98202.03;5005317;28;19932;-94
2024/04/04 11:00:56;;;;;;;;;;;;;;;12.84;76.00;98211.06;4992085;28;19921;-96
2024/04/04 11:03:22;;;;;;;;;;;;;;;12.94;75.18;98208.47;5010074;28;20237;-95
2024/04/04 11:05:48;;;;;;;;;;;;;;;13.00;75.46;98197.84;4976708;28;19925;-94
2024/04/04 11:08:13;;;;;;;;;;;;;;;13.19;74.95;98198.94;5002775;28;19924;-94
2024/04/04 11:10:43;;;;;;;;;;;;;;;13.29;74.42;98201.75;5009792;28;19922;-94
2024/04/04 11:13:10;;;;;;;;;;;;;;;13.29;74.61;98196.38;5008164;28;19969;-94
2024/04/04 11:15:38;;;;;;;;;;;;;;;13.32;73.53;98198.22;5007835;28;19918;-94
2024/04/04 11:18:05;;;;;;;;;;;;;;;13.41;73.12;98184.88;4991011;28;19925;-96
2024/04/04 11:20:31;;;;;;;;;;;;;;;13.43;71.30;98190.25;4973115;28;19928;-95
2024/04/04 11:22:58;;;;;;;;;;;;;;;13.39;72.73;98191.13;4996953;28;19981;-94
2024/04/04 11:25:26;;;;;;;;;;;;;;;13.46;71.33;98172.44;4998834;28;19963;-94
2024/04/04 11:27:51;;;;;;;;;;;;;;;13.46;70.87;98182.22;4990506;28;19918;-94
2024/04/04 11:30:17;;;;;;;;;;;;;;;13.63;70.91;98169.00;5001905;28;19918;-94
2024/04/04 11:32:43;;;;;;;;;;;;;;;13.64;71.01;98170.78;4995249;28;20012;-93
2024/04/04 11:35:08;;;;;;;;;;;;;;;13.80;69.37;98167.34;4984832;28;19987;-94
2024/04/04 11:37:34;;;;;;;;;;;;;;;13.89;68.22;98167.38;4984441;28;20012;-94
2024/04/04 11:40:00;;;;;;;;;;;;;;;13.89;67.69;98177.22;5001693;28;19925;-93
2024/04/04 11:42:26;;;;;;;;;;;;;;;13.93;67.87;98185.28;4999609;28;19929;-93
2024/04/04 11:44:52;;;;;;;;;;;;;;;14.02;69.02;98185.34;4983725;28;19956;-93
2024/04/04 11:47:17;;;;;;;;;;;;;;;14.04;67.07;98194.34;4987881;28;19909;-93
2024/04/04 11:49:45;;;;;;;;;;;;;;;14.08;67.33;98195.22;4983926;28;19929;-95
2024/04/04 11:52:11;;;;;;;;;;;;;;;14.10;67.30;98191.69;4989970;28;19918;-91
2024/04/04 11:54:36;;;;;;;;;;;;;;;14.01;67.98;98193.41;4992305;28;20012;-92
2024/04/04 11:57:01;;;;;;;;;;;;;;;14.03;68.65;98192.50;4970849;28;19918;-94
2024/04/04 11:59:27;;;;;;;;;;;;;;;13.81;68.74;98199.53;4984258;28;19945;-95
2024/04/04 12:01:54;;;;;;;;;;;;;;;13.41;71.28;98203.63;4987569;28;19922;-94
2024/04/04 12:04:25;;;;;;;;;;;;;;;13.29;71.23;98200.84;4983800;28;19921;-94
2024/04/04 12:06:50;;;;;;;;;;;;;;;13.23;72.59;98201.69;4999173;28;19926;-95
2024/04/04 12:09:17;;;;;;;;;;;;;;;13.38;71.65;98205.41;4966305;28;20008;-96
2024/04/04 12:11:45;;;;;;;;;;;;;;;13.36;71.90;98183.94;5000730;28;19930;-92
2024/04/04 12:14:12;;;;;;;;;;;;;;;13.66;71.58;98195.84;4988832;28;19990;-95
2024/04/04 12:16:39;;;;;;;;;;;;;;;13.78;70.13;98204.84;5006952;28;19914;-96
2024/04/04 12:21:50;;;;;;;;;;;;;;;13.83;69.30;98205.78;5009451;28;19918;-95
2024/04/04 12:24:15;;;;;;;;;;;;;;;14.00;66.75;98203.25;5009654;28;19953;-95
2024/04/04 12:26:43;;;;;;;;;;;;;;;14.21;67.49;98205.16;5007532;28;19924;-96
2024/04/04 12:29:09;;;;;;;;;;;;;;;14.11;66.30;98203.31;4995296;28;20377;-95
2024/04/04 12:31:35;;;;;;;;;;;;;;;13.95;67.77;98199.63;4996915;28;19921;-95
2024/04/04 12:34:03;;;;;;;;;;;;;;;14.09;66.31;98189.88;4994018;28;19929;-96
2024/04/04 12:36:36;;;;;;;;;;;;;;;14.20;65.82;98203.38;5013407;28;19942;-96
2024/04/04 12:39:03;;;;;;;;;;;;;;;14.03;66.22;98186.25;5019754;28;19905;-96
2024/04/04 12:44:09;;;;;;;;;;;;;;;14.00;67.18;98194.28;5011408;28;19929;-96
2024/04/04 12:46:39;;;;;;;;;;;;;;;13.91;66.14;98196.91;5005057;28;19929;-95
2024/04/04 12:49:05;;;;;;;;;;;;;;;13.98;66.53;98191.59;4994914;28;19914;-93
2024/04/04 12:51:31;;;;;;;;;;;;;;;14.00;64.98;98197.88;4981429;28;20272;-92
2024/04/04 12:53:56;;;;;;;;;;;;;;;14.05;65.17;98189.84;5007264;28;19963;-93
2024/04/04 12:56:21;;;;;;;;;;;;;;;14.05;65.27;98204.16;5003542;28;20289;-92
2024/04/04 12:58:49;;;;;;;;;;;;;;;14.11;65.46;98190.78;4981526;28;19925;-94
2024/04/04 13:01:15;;;;;;;;;;;;;;;14.15;63.81;98188.13;4984638;28;19928;-93
2024/04/04 13:03:42;;;;;;;;;;;;;;;13.97;65.11;98188.91;5009102;28;19918;-95
2024/04/04 13:06:10;;;;;;;;;;;;;;;13.98;63.91;98185.31;5000887;28;19925;-94
2024/04/04 13:08:36;;;;;;;;;;;;;;;13.86;64.14;98196.88;4994007;28;19922;-94
2024/04/04 13:11:01;;;;;;;;;;;;;;;13.72;64.40;98185.16;5000790;28;20052;-95
2024/04/04 13:13:30;;;;;;;;;;;;;;;13.73;65.17;98189.63;5597054;22;20145;-95
2024/04/04 13:34:33;;;;;;;;;;;;;;;14.34;61.51;98149.78;5034961;28;19925;-94
2024/04/04 13:36:58;;;;;;;;;;;;;;;14.24;61.69;98140.78;5003162;28;19917;-95
2024/04/04 13:39:24;;;;;;;;;;;;;;;14.33;60.64;98138.16;4998947;28;19929;-96
2024/04/04 13:44:33;;;;;;;;;;;;;;;14.53;59.06;98126.63;5230287;23;19925;-94
2024/04/04 13:49:51;;;;;;;;;;;;;;;14.44;60.13;98126.56;5711969;23;19939;-93
2024/04/04 13:52:23;;;;;;;;;;;;;;;14.49;59.73;98123.03;4993231;28;19934;-94
2024/04/04 13:54:51;;;;;;;;;;;;;;;14.41;60.56;98123.84;5001685;28;19930;-94
2024/04/04 13:57:27;;;;;;;;;;;;;;;14.44;59.93;98114.03;4965632;28;19922;-93
2024/04/04 13:59:52;;;;;;;;;;;;;;;14.42;60.03;98110.47;4959641;28;19965;-94
2024/04/04 14:02:23;;;;;;;;;;;;;;;14.18;62.39;98113.94;4977289;28;19929;-94
2024/04/04 14:04:51;;;;;;;;;;;;;;;13.73;64.12;98102.03;4962504;28;19926;-96